Time;durP1;ratioP1;P1;durP2;ratioP2;P2;SDS_P1;SDS_P2;PMS_P1;PMS_P2;Temp;Humidity;BMP_temperature;BMP_pressure;BME280_temperature;BME280_humidity;BME280_pressure;Samples;Min_cycle;Max_cycle;Signal;HPM_P1;HPM_P2
2021/06/12 00:02:13;;;;;;;14.80;10.95;;;18.70;99.90;;;;;;6196309;23;20027;-87
2021/06/12 00:04:40;;;;;;;16.55;10.32;;;18.70;99.90;;;;;;6193565;23;20021;-85
2021/06/12 00:07:08;;;;;;;17.00;11.48;;;18.60;99.90;;;;;;6221138;23;20035;-87
2021/06/12 00:09:35;;;;;;;14.15;10.20;;;18.50;99.90;;;;;;6192639;23;20082;-84
2021/06/12 00:12:03;;;;;;;14.98;10.10;;;18.40;99.90;;;;;;6219663;23;20016;-86
2021/06/12 00:14:30;;;;;;;15.25;10.50;;;18.50;99.90;;;;;;6194127;23;20017;-87
2021/06/12 00:16:57;;;;;;;15.57;10.23;;;18.50;99.90;;;;;;6220716;23;20024;-83
2021/06/12 00:19:24;;;;;;;19.95;11.40;;;18.60;99.90;;;;;;6193018;23;20016;-85
2021/06/12 00:21:51;;;;;;;16.98;11.77;;;18.60;99.90;;;;;;6194606;23;20028;-87
2021/06/12 00:24:19;;;;;;;17.95;12.10;;;18.70;99.90;;;;;;6190919;23;20024;-87
2021/06/12 00:26:46;;;;;;;14.63;10.48;;;18.60;99.90;;;;;;6220922;23;20401;-87
2021/06/12 00:29:13;;;;;;;16.00;11.05;;;18.70;99.90;;;;;;6194038;23;20021;-83
2021/06/12 00:31:40;;;;;;;13.75;10.25;;;18.70;99.90;;;;;;6217436;23;20016;-88
2021/06/12 00:34:07;;;;;;;15.60;10.93;;;19.40;99.90;;;;;;6193353;23;20064;-84
2021/06/12 00:36:34;;;;;;;17.23;10.80;;;18.60;99.90;;;;;;6194462;23;20009;-87
2021/06/12 00:39:02;;;;;;;16.05;11.50;;;18.70;99.90;;;;;;6193789;23;20078;-84
2021/06/12 00:41:30;;;;;;;16.13;10.93;;;18.60;99.90;;;;;;6221901;23;20442;-86
2021/06/12 00:43:57;;;;;;;16.25;11.65;;;18.60;99.90;;;;;;6195020;23;20393;-85
2021/06/12 00:46:24;;;;;;;16.90;11.98;;;18.70;99.90;;;;;;6219846;23;20016;-84
2021/06/12 00:48:52;;;;;;;16.02;11.60;;;18.70;99.90;;;;;;6202949;23;20017;-86
2021/06/12 00:51:21;;;;;;;15.10;10.95;;;18.60;99.90;;;;;;6193641;23;20442;-84
2021/06/12 00:53:48;;;;;;;14.68;10.02;;;18.20;99.90;;;;;;6193893;23;20026;-87
2021/06/12 00:56:17;;;;;;;14.45;10.85;;;18.60;99.90;;;;;;6195393;23;20017;-84
2021/06/12 00:58:47;;;;;;;16.98;12.80;;;18.60;99.90;;;;;;6196118;23;20047;-86
2021/06/12 01:01:16;;;;;;;15.75;11.32;;;18.60;99.90;;;;;;6194193;23;20012;-87
2021/06/12 01:03:45;;;;;;;15.57;11.48;;;18.50;99.90;;;;;;6195787;23;20031;-84
2021/06/12 01:06:13;;;;;;;18.02;11.73;;;19.60;99.90;;;;;;6195369;23;20023;-88
2021/06/12 01:08:43;;;;;;;17.65;11.38;;;18.50;99.90;;;;;;6194259;23;20021;-87
2021/06/12 01:11:11;;;;;;;17.48;12.32;;;18.50;99.90;;;;;;6195188;23;20017;-86
2021/06/12 01:13:51;;;;;;;17.30;12.88;;;18.60;99.90;;;;;;6196511;23;20340;-87
2021/06/12 01:16:24;;;;;;;17.67;12.13;;;18.50;99.90;;;;;;6189219;23;20087;-88
2021/06/12 01:18:53;;;;;;;19.73;13.55;;;18.50;99.90;;;;;;6220720;23;20083;-87
2021/06/12 01:21:31;;;;;;;21.33;14.23;;;18.50;99.90;;;;;;6198073;23;20020;-86
2021/06/12 01:24:43;;;;;;;20.67;14.18;;;18.60;99.90;;;;;;6197065;23;20082;-86
2021/06/12 01:27:28;;;;;;;19.75;13.02;;;18.60;99.90;;;;;;6221126;23;20050;-87
2021/06/12 01:30:06;;;;;;;22.58;13.15;;;18.60;99.90;;;;;;6194329;23;20087;-86
2021/06/12 01:32:34;;;;;;;19.17;14.15;;;18.60;99.90;;;;;;6193630;23;20023;-87
2021/06/12 01:35:05;;;;;;;26.00;16.95;;;18.50;99.90;;;;;;6194502;23;20016;-86
2021/06/12 01:37:37;;;;;;;22.33;14.60;;;18.50;99.90;;;;;;6219902;23;20013;-87
2021/06/12 01:40:05;;;;;;;21.50;14.80;;;18.50;99.90;;;;;;6193396;23;20016;-86
2021/06/12 01:42:34;;;;;;;27.05;16.63;;;18.60;99.90;;;;;;6192828;23;20079;-88
2021/06/12 01:45:03;;;;;;;23.85;16.33;;;19.80;99.90;;;;;;6191774;23;20044;-83
2021/06/12 01:47:31;;;;;;;23.05;16.10;;;18.70;99.90;;;;;;6218468;23;20025;-87
2021/06/12 01:50:00;;;;;;;28.00;17.38;;;18.60;99.90;;;;;;6194682;23;20012;-87
2021/06/12 01:52:28;;;;;;;26.20;16.60;;;18.70;99.90;;;;;;6194402;23;20024;-87
2021/06/12 01:54:56;;;;;;;30.30;18.45;;;18.60;99.90;;;;;;6194995;23;20016;-88
2021/06/12 01:57:24;;;;;;;28.60;17.17;;;18.60;99.90;;;;;;6194540;23;20394;-88
2021/06/12 01:59:54;;;;;;;25.63;16.85;;;18.60;99.90;;;;;;6193174;23;20028;-87
2021/06/12 02:02:23;;;;;;;28.10;18.20;;;18.60;99.90;;;;;;6195620;23;20335;-87
2021/06/12 02:04:51;;;;;;;30.60;19.13;;;18.70;99.90;;;;;;6195367;23;20031;-87
2021/06/12 02:07:19;;;;;;;27.33;17.88;;;18.70;99.90;;;;;;6220110;23;20070;-87
2021/06/12 02:09:51;;;;;;;27.42;17.48;;;18.60;99.90;;;;;;6194803;23;20332;-88
2021/06/12 02:12:19;;;;;;;28.23;17.70;;;18.50;99.90;;;;;;6192827;23;20017;-87
2021/06/12 02:14:47;;;;;;;28.95;18.92;;;18.50;99.90;;;;;;6195994;23;20038;-87
2021/06/12 02:17:15;;;;;;;32.45;19.45;;;18.40;99.90;;;;;;6218648;23;20039;-86
2021/06/12 02:19:44;;;;;;;29.02;19.17;;;18.30;99.90;;;;;;6196803;23;20024;-86
2021/06/12 02:22:10;;;;;;;30.05;17.17;;;18.30;99.90;;;;;;6196114;23;20055;-86
2021/06/12 02:24:37;;;;;;;30.45;19.02;;;18.20;99.90;;;;;;6197090;23;20020;-85
2021/06/12 02:27:07;;;;;;;28.85;18.65;;;18.30;99.90;;;;;;6233041;23;20020;-84
2021/06/12 02:29:35;;;;;;;;;;;18.10;99.90;;;;;;6198946;23;20021;-87
2021/06/12 02:32:06;;;;;;;28.25;18.45;;;18.10;99.90;;;;;;6199375;23;19919;-84
2021/06/12 02:34:35;;;;;;;28.00;18.08;;;18.10;99.90;;;;;;6199350;23;20020;-87
2021/06/12 02:37:05;;;;;;;30.58;18.48;;;18.00;99.90;;;;;;6198975;23;20023;-85
2021/06/12 02:39:32;;;;;;;34.45;19.13;;;17.90;99.90;;;;;;6222810;23;20047;-87
2021/06/12 02:41:59;;;;;;;30.25;18.38;;;17.90;99.90;;;;;;6225668;23;20075;-87
2021/06/12 02:44:26;;;;;;;30.23;19.17;;;17.80;99.90;;;;;;6228095;23;20194;-84
2021/06/12 02:46:57;;;;;;;34.72;19.58;;;17.90;99.90;;;;;;6200941;23;20012;-85
2021/06/12 02:49:27;;;;;;;28.02;18.73;;;17.90;99.90;;;;;;6202300;23;20020;-84
2021/06/12 02:51:56;;;;;;;34.47;20.48;;;17.80;99.90;;;;;;6224646;23;20083;-87
2021/06/12 02:54:26;;;;;;;34.65;19.48;;;17.80;99.90;;;;;;6198434;23;20024;-86
2021/06/12 02:56:54;;;;;;;;;;;17.60;99.90;;;;;;6202248;23;20013;-86
2021/06/12 02:59:23;;;;;;;34.13;19.45;;;17.60;99.90;;;;;;6202128;23;19942;-87
2021/06/12 03:01:53;;;;;;;34.55;19.65;;;17.60;99.90;;;;;;6201612;23;20017;-88
2021/06/12 03:04:20;;;;;;;30.42;19.13;;;17.50;99.90;;;;;;6228506;23;20020;-87
2021/06/12 03:06:50;;;;;;;33.30;20.52;;;17.50;99.90;;;;;;6200936;23;20031;-84
2021/06/12 03:09:20;;;;;;;31.65;19.38;;;17.50;99.90;;;;;;6202183;23;20020;-82
2021/06/12 03:14:25;;;;;;;34.83;20.08;;;17.60;99.90;;;;;;6244781;23;20511;-80
2021/06/12 03:16:53;;;;;;;36.08;20.90;;;17.60;99.90;;;;;;6217626;23;20327;-82
2021/06/12 03:19:21;;;;;;;40.72;21.25;;;17.60;99.90;;;;;;6243056;23;20027;-81
2021/06/12 03:21:49;;;;;;;40.03;21.20;;;17.60;99.90;;;;;;6217607;23;20512;-83
2021/06/12 03:24:16;;;;;;;32.17;19.67;;;17.60;99.90;;;;;;6218137;23;20020;-80
2021/06/12 03:26:45;;;;;;;34.42;19.33;;;17.50;99.90;;;;;;6243282;23;20012;-81
2021/06/12 03:29:12;;;;;;;36.97;20.75;;;17.60;99.90;;;;;;6217765;23;20397;-83
2021/06/12 03:31:40;;;;;;;31.20;19.95;;;17.60;99.90;;;;;;6243897;23;20054;-80
2021/06/12 03:34:08;;;;;;;41.38;21.20;;;17.70;99.90;;;;;;6217613;23;20020;-81
2021/06/12 03:36:35;;;;;;;44.75;23.70;;;17.70;99.90;;;;;;6217345;23;20019;-83
2021/06/12 03:39:03;;;;;;;37.75;21.00;;;17.70;99.90;;;;;;6226339;23;20024;-84
2021/06/12 03:41:30;;;;;;;34.63;19.90;;;17.70;99.90;;;;;;6218516;23;20020;-82
2021/06/12 03:43:57;;;;;;;39.78;21.73;;;17.70;99.90;;;;;;6243487;23;20511;-83
2021/06/12 03:46:24;;;;;;;41.10;22.73;;;17.70;99.90;;;;;;6243547;23;20016;-84
2021/06/12 03:48:54;;;;;;;34.20;20.88;;;17.70;99.90;;;;;;6216551;23;20508;-84
2021/06/12 03:51:21;;;;;;;32.83;19.67;;;17.70;99.90;;;;;;6216389;23;20016;-83
2021/06/12 03:53:49;;;;;;;38.35;21.33;;;17.70;99.90;;;;;;6242502;23;20112;-83
2021/06/12 03:56:20;;;;;;;40.05;21.77;;;17.70;99.90;;;;;;6217862;23;20138;-81
2021/06/12 03:58:49;;;;;;;39.25;22.58;;;17.80;99.90;;;;;;6218221;23;20043;-82
2021/06/12 04:01:17;;;;;;;39.53;22.27;;;17.80;99.90;;;;;;6217936;23;20020;-81
2021/06/12 04:03:45;;;;;;;41.47;24.00;;;17.70;99.90;;;;;;6243950;23;20016;-81
2021/06/12 04:06:13;;;;;;;35.78;21.63;;;17.70;99.90;;;;;;6217318;23;20446;-81
2021/06/12 04:08:41;;;;;;;42.03;22.08;;;17.70;99.90;;;;;;6216995;23;20452;-81
2021/06/12 04:11:08;;;;;;;38.20;21.67;;;17.80;99.90;;;;;;6243276;23;20385;-82
2021/06/12 04:13:35;;;;;;;39.60;23.77;;;17.80;99.90;;;;;;6217272;23;20331;-82
2021/06/12 04:16:02;;;;;;;38.13;21.10;;;17.90;99.90;;;;;;6217882;23;20012;-81
2021/06/12 04:18:28;;;;;;;36.90;22.10;;;18.00;99.90;;;;;;6216008;23;20349;-82
2021/06/12 04:20:56;;;;;;;41.38;23.20;;;18.00;99.90;;;;;;6242263;23;20520;-81
2021/06/12 04:23:24;;;;;;;41.00;23.20;;;18.10;99.90;;;;;;6218077;23;20016;-80
2021/06/12 04:25:51;;;;;;;46.15;25.00;;;18.10;99.90;;;;;;6242189;23;20012;-82
2021/06/12 04:28:18;;;;;;;45.30;25.23;;;18.10;99.90;;;;;;6217266;23;20114;-83
2021/06/12 04:30:45;;;;;;;42.63;24.40;;;18.70;99.90;;;;;;6226376;23;20023;-82
2021/06/12 04:33:12;;;;;;;48.85;24.23;;;18.20;99.90;;;;;;6224427;23;20024;-83
2021/06/12 04:35:39;;;;;;;44.90;24.40;;;18.20;99.90;;;;;;6241216;23;20031;-83
2021/06/12 04:38:06;;;;;;;43.72;24.20;;;18.20;99.90;;;;;;6244252;23;20082;-83
2021/06/12 04:40:35;;;;;;;42.97;23.73;;;18.30;99.90;;;;;;6216914;23;20019;-83
2021/06/12 04:43:03;;;;;;;40.95;21.30;;;18.30;99.90;;;;;;6215490;23;20016;-83
2021/06/12 04:45:30;;;;;;;37.95;21.17;;;18.30;99.90;;;;;;6214564;23;20458;-85
2021/06/12 04:47:58;;;;;;;39.97;21.63;;;18.40;99.90;;;;;;6215732;23;20024;-84
2021/06/12 04:50:25;;;;;;;36.78;20.92;;;18.50;99.90;;;;;;6243888;23;20016;-81
2021/06/12 04:52:52;;;;;;;37.25;21.33;;;18.50;99.90;;;;;;6254420;23;20070;-81
2021/06/12 04:55:19;;;;;;;37.22;20.88;;;18.50;99.90;;;;;;6213512;23;20512;-81
2021/06/12 04:57:47;;;;;;;34.67;20.05;;;18.40;99.90;;;;;;6217537;23;20020;-82
2021/06/12 05:00:15;;;;;;;31.70;19.38;;;18.30;99.90;;;;;;6225474;23;20373;-83
2021/06/12 05:02:42;;;;;;;35.60;20.58;;;18.40;99.90;;;;;;6241954;23;20016;-81
2021/06/12 05:05:10;;;;;;;33.38;19.77;;;18.40;99.90;;;;;;6240726;23;20019;-80
2021/06/12 05:07:38;;;;;;;32.78;18.70;;;18.40;99.90;;;;;;6216654;23;20079;-82
2021/06/12 05:10:06;;;;;;;32.17;18.52;;;18.40;99.90;;;;;;6217032;23;20357;-82
2021/06/12 05:12:33;;;;;;;30.27;19.13;;;18.50;99.90;;;;;;6227209;23;20069;-80
2021/06/12 05:15:02;;;;;;;29.80;17.80;;;18.50;99.90;;;;;;6216602;23;20247;-82
2021/06/12 05:17:29;;;;;;;31.40;17.63;;;18.50;99.90;;;;;;6216461;23;20020;-81
2021/06/12 05:19:56;;;;;;;28.90;16.85;;;19.20;99.90;;;;;;6244095;23;20442;-81
2021/06/12 05:22:25;;;;;;;28.25;16.52;;;18.70;99.90;;;;;;6217491;23;20070;-82
2021/06/12 05:24:52;;;;;;;28.90;17.87;;;18.90;99.90;;;;;;6241101;23;20023;-81
2021/06/12 05:27:19;;;;;;;26.52;16.63;;;18.80;99.90;;;;;;6227650;23;20326;-83
2021/06/12 05:29:46;;;;;;;26.67;16.10;;;19.80;99.90;;;;;;6214946;23;20393;-82
2021/06/12 05:32:15;;;;;;;28.50;16.33;;;18.90;99.90;;;;;;6217410;23;20071;-83
2021/06/12 05:34:42;;;;;;;23.77;14.80;;;19.00;99.90;;;;;;6216051;23;20062;-82
2021/06/12 05:37:10;;;;;;;26.00;15.65;;;19.10;99.90;;;;;;6216821;23;20019;-83
2021/06/12 05:39:37;;;;;;;27.25;16.67;;;19.10;99.90;;;;;;6241873;23;20031;-85
2021/06/12 05:42:04;;;;;;;26.65;15.73;;;19.20;99.90;;;;;;6253978;23;20016;-83
2021/06/12 05:44:31;;;;;;;25.13;15.50;;;19.20;99.90;;;;;;6243330;23;20020;-81
2021/06/12 05:46:58;;;;;;;27.08;16.08;;;19.10;99.90;;;;;;6220175;23;20015;-81
2021/06/12 05:49:26;;;;;;;27.88;16.05;;;19.20;99.90;;;;;;6218058;23;20012;-84
2021/06/12 05:51:53;;;;;;;23.23;14.73;;;19.30;99.90;;;;;;6247350;23;20016;-81
2021/06/12 05:54:20;;;;;;;24.40;15.00;;;19.40;99.90;;;;;;6246388;23;20020;-82
2021/06/12 05:56:47;;;;;;;24.13;14.50;;;19.40;99.90;;;;;;6219523;23;20063;-81
2021/06/12 05:59:14;;;;;;;27.67;15.82;;;19.30;99.90;;;;;;6245304;23;20020;-83
2021/06/12 06:01:41;;;;;;;27.85;15.52;;;19.30;99.90;;;;;;6218775;23;20016;-83
2021/06/12 06:04:08;;;;;;;26.23;15.18;;;19.20;99.90;;;;;;6219875;23;20016;-83
2021/06/12 06:06:36;;;;;;;24.30;15.10;;;19.10;99.90;;;;;;6220260;23;20024;-82
2021/06/12 06:09:03;;;;;;;25.92;15.18;;;19.10;99.90;;;;;;6217269;23;20016;-83
2021/06/12 06:11:30;;;;;;;29.02;16.02;;;18.80;99.90;;;;;;6219210;23;20033;-81
2021/06/12 06:13:57;;;;;;;23.80;15.10;;;18.80;99.90;;;;;;6216648;23;20070;-82
2021/06/12 06:16:24;;;;;;;26.40;15.15;;;18.80;99.90;;;;;;6215890;23;20020;-81
2021/06/12 06:18:51;;;;;;;26.38;15.20;;;18.90;99.90;;;;;;6255460;23;20019;-83
2021/06/12 06:21:19;;;;;;;23.83;13.93;;;19.90;99.90;;;;;;6218711;23;20016;-81
2021/06/12 06:23:47;;;;;;;22.85;14.63;;;18.90;99.90;;;;;;6252967;23;20070;-81
2021/06/12 06:26:14;;;;;;;26.67;14.95;;;18.90;99.90;;;;;;6217667;23;20159;-81
2021/06/12 06:28:41;;;;;;;21.85;13.95;;;18.90;99.90;;;;;;6245844;23;20016;-86
2021/06/12 06:31:08;;;;;;;23.58;14.38;;;18.90;99.90;;;;;;6218940;23;20504;-85
2021/06/12 06:33:35;;;;;;;24.95;15.00;;;18.90;99.90;;;;;;6218162;23;20016;-81
2021/06/12 06:36:03;;;;;;;24.70;14.35;;;18.90;99.90;;;;;;6217796;23;20027;-81
2021/06/12 06:38:29;;;;;;;24.27;14.60;;;19.00;99.90;;;;;;6244524;23;20074;-82
2021/06/12 06:40:58;;;;;;;23.95;14.73;;;19.00;99.90;;;;;;6217454;23;20031;-80
2021/06/12 06:43:25;;;;;;;22.23;13.77;;;18.90;99.90;;;;;;6217619;23;20020;-82
2021/06/12 06:45:53;;;;;;;23.42;14.27;;;18.90;99.90;;;;;;6218255;23;20024;-82
2021/06/12 06:48:20;;;;;;;27.65;15.30;;;19.00;99.90;;;;;;6218092;23;20243;-80
2021/06/12 06:50:47;;;;;;;23.35;14.82;;;19.00;99.90;;;;;;6217970;23;20393;-81
2021/06/12 06:53:14;;;;;;;22.50;14.82;;;19.00;99.90;;;;;;6217833;23;20024;-81
2021/06/12 06:55:41;;;;;;;21.90;14.40;;;19.10;99.90;;;;;;6218602;23;20020;-80
2021/06/12 06:58:09;;;;;;;24.70;14.73;;;19.10;99.90;;;;;;6217938;23;20074;-81
2021/06/12 07:00:36;;;;;;;22.13;14.13;;;19.20;99.90;;;;;;6216972;23;20062;-82
2021/06/12 07:03:03;;;;;;;23.27;14.07;;;19.20;99.90;;;;;;6218228;23;20069;-82
2021/06/12 07:05:30;;;;;;;23.52;14.65;;;19.50;99.90;;;;;;6215090;23;20074;-82
2021/06/12 07:07:57;;;;;;;20.73;14.32;;;19.60;99.90;;;;;;6216134;23;20012;-82
2021/06/12 07:10:23;;;;;;;22.35;13.15;;;19.70;99.90;;;;;;6217178;23;20024;-81
2021/06/12 07:12:57;;;;;;;22.30;12.63;;;19.80;99.90;;;;;;6217917;23;20019;-82
2021/06/12 07:15:26;;;;;;;21.90;13.30;;;19.90;99.90;;;;;;6217346;23;20020;-82
2021/06/12 07:17:54;;;;;;;18.38;12.75;;;20.10;99.90;;;;;;6242215;23;20389;-81
2021/06/12 07:20:21;;;;;;;19.98;13.05;;;20.10;99.90;;;;;;6244086;23;20392;-82
2021/06/12 07:22:48;;;;;;;20.00;12.35;;;20.10;99.90;;;;;;6217653;23;20016;-81
2021/06/12 07:25:15;;;;;;;19.50;12.43;;;20.00;99.90;;;;;;6242650;23;20503;-82
2021/06/12 07:27:42;;;;;;;17.92;11.98;;;19.80;99.90;;;;;;6216649;23;20066;-82
2021/06/12 07:30:10;;;;;;;18.25;11.93;;;19.80;99.90;;;;;;6241410;23;20024;-82
2021/06/12 07:32:38;;;;;;;18.45;12.10;;;19.80;99.90;;;;;;6214894;23;20353;-82
2021/06/12 07:35:05;;;;;;;19.92;12.07;;;19.90;99.90;;;;;;6216083;23;20342;-81
2021/06/12 07:37:32;;;;;;;22.58;11.77;;;19.90;99.90;;;;;;6242728;23;20012;-83
2021/06/12 07:39:59;;;;;;;17.67;10.68;;;19.90;99.90;;;;;;6229296;23;20401;-83
2021/06/12 07:42:26;;;;;;;19.52;12.00;;;19.80;99.90;;;;;;6217534;23;20020;-82
2021/06/12 07:44:53;;;;;;;19.92;11.25;;;20.00;99.90;;;;;;6229552;23;20081;-83
2021/06/12 07:47:19;;;;;;;16.58;11.25;;;19.90;99.90;;;;;;6218357;23;20323;-82
2021/06/12 07:49:47;;;;;;;17.55;11.77;;;19.80;99.90;;;;;;6241947;23;20020;-80
2021/06/12 07:52:14;;;;;;;18.13;10.90;;;19.90;99.90;;;;;;6242401;23;20019;-81
2021/06/12 07:54:41;;;;;;;20.60;12.07;;;19.90;99.90;;;;;;6216747;23;20074;-81
2021/06/12 07:57:08;;;;;;;17.83;11.20;;;19.90;99.90;;;;;;6217217;23;20459;-82
2021/06/12 07:59:35;;;;;;;16.63;10.38;;;19.80;99.90;;;;;;6243481;23;20396;-83
2021/06/12 08:02:02;;;;;;;17.05;10.70;;;20.00;99.90;;;;;;6217905;23;20020;-83
2021/06/12 08:04:29;;;;;;;16.85;10.63;;;19.90;99.90;;;;;;6243532;23;20107;-82
2021/06/12 08:06:57;;;;;;;18.23;10.82;;;19.90;99.90;;;;;;6215185;23;20019;-81
2021/06/12 08:09:24;;;;;;;17.33;11.00;;;20.00;99.90;;;;;;6214118;23;20028;-86
2021/06/12 08:11:52;;;;;;;16.17;10.27;;;20.10;99.90;;;;;;6214963;23;20024;-83
2021/06/12 08:14:19;;;;;;;17.83;10.57;;;20.20;99.90;;;;;;6217675;23;20334;-81
2021/06/12 08:16:46;;;;;;;14.25;9.20;;;20.30;99.90;;;;;;6215701;23;20016;-83
2021/06/12 08:19:13;;;;;;;14.15;9.25;;;20.50;99.90;;;;;;6243617;23;20071;-81
2021/06/12 08:21:39;;;;;;;15.02;9.48;;;20.60;99.90;;;;;;6218357;23;20024;-82
2021/06/12 08:24:08;;;;;;;16.55;9.40;;;20.50;99.90;;;;;;6216780;23;20050;-82
2021/06/12 08:26:35;;;;;;;12.75;9.10;;;20.50;99.90;;;;;;6218291;23;20481;-83
2021/06/12 08:29:02;;;;;;;16.48;9.85;;;20.60;99.90;;;;;;6218194;23;20012;-82
2021/06/12 08:31:32;;;;;;;15.80;10.05;;;20.70;99.90;;;;;;6217092;23;20028;-82
2021/06/12 08:34:00;;;;;;;14.45;9.32;;;20.90;99.90;;;;;;6216198;23;20024;-80
2021/06/12 08:36:27;;;;;;;12.48;8.43;;;21.00;99.90;;;;;;6214664;23;20020;-83
2021/06/12 08:38:54;;;;;;;13.48;8.70;;;21.20;99.90;;;;;;6224698;23;20012;-82
2021/06/12 08:41:23;;;;;;;16.02;9.70;;;21.30;99.90;;;;;;6221257;23;20016;-85
2021/06/12 08:43:56;;;;;;;14.67;9.30;;;21.50;99.90;;;;;;6215263;23;20449;-83
2021/06/12 08:46:25;;;;;;;17.58;9.55;;;21.60;99.90;;;;;;6240100;23;20312;-83
2021/06/12 08:48:52;;;;;;;13.15;8.88;;;21.70;99.90;;;;;;6225170;23;20016;-83
2021/06/12 08:51:19;;;;;;;17.73;9.88;;;21.70;99.90;;;;;;6213749;23;20020;-83
2021/06/12 08:53:47;;;;;;;14.10;9.25;;;21.80;99.90;;;;;;6215492;23;20585;-81
2021/06/12 08:56:14;;;;;;;13.63;8.52;;;22.10;99.90;;;;;;6211152;23;20063;-82
2021/06/12 08:58:42;;;;;;;17.58;8.32;;;22.20;99.90;;;;;;6239543;23;20074;-83
2021/06/12 09:01:18;;;;;;;14.02;8.73;;;22.10;99.90;;;;;;6224404;23;20350;-84
2021/06/12 09:03:46;;;;;;;13.95;8.85;;;22.10;99.90;;;;;;6240015;23;20074;-84
2021/06/12 09:06:18;;;;;;;16.27;9.20;;;21.80;99.90;;;;;;6214793;23;20016;-83
2021/06/12 09:08:45;;;;;;;12.65;9.05;;;21.70;99.90;;;;;;6223345;23;20016;-81
2021/06/12 09:11:14;;;;;;;12.23;8.85;;;21.50;99.90;;;;;;6213879;23;20085;-83
2021/06/12 09:13:44;;;;;;;14.10;9.63;;;21.40;99.90;;;;;;6216942;23;20016;-82
2021/06/12 09:16:23;;;;;;;17.17;9.43;;;21.20;99.90;;;;;;6215612;23;20078;-82
2021/06/12 09:19:11;;;;;;;14.23;9.55;;;21.20;99.90;;;;;;6220783;23;20481;-81
2021/06/12 09:21:40;;;;;;;13.20;9.32;;;21.20;99.90;;;;;;6215950;23;20016;-80
2021/06/12 09:24:21;;;;;;;14.77;9.60;;;21.20;99.90;;;;;;6242518;23;20016;-83
2021/06/12 09:26:50;;;;;;;12.93;9.35;;;21.20;99.90;;;;;;6243603;23;20012;-83
2021/06/12 09:29:20;;;;;;;14.20;9.32;;;21.20;99.90;;;;;;6216269;23;20454;-82
2021/06/12 09:31:49;;;;;;;13.45;9.20;;;21.30;99.90;;;;;;6215924;23;20334;-82
2021/06/12 09:34:19;;;;;;;11.85;8.48;;;21.40;99.90;;;;;;6216232;23;20016;-79
2021/06/12 09:36:47;;;;;;;15.20;9.43;;;21.50;99.90;;;;;;6216453;23;20016;-81
2021/06/12 09:39:17;;;;;;;15.57;8.63;;;21.80;99.90;;;;;;6216084;23;20020;-82
2021/06/12 09:41:45;;;;;;;12.95;9.43;;;21.90;99.90;;;;;;6212795;23;20020;-82
2021/06/12 09:44:28;;;;;;;15.27;9.70;;;21.70;99.90;;;;;;6244395;23;20046;-83
2021/06/12 09:46:56;;;;;;;14.60;8.93;;;21.50;99.90;;;;;;6243521;23;20020;-83
2021/06/12 09:49:30;;;;;;;13.35;9.02;;;21.20;99.90;;;;;;6216372;23;20016;-83
2021/06/12 09:52:05;;;;;;;14.90;8.07;;;21.20;99.90;;;;;;6216191;23;20016;-82
2021/06/12 09:54:37;;;;;;;10.10;6.45;;;21.00;99.90;;;;;;6216162;23;20317;-82
2021/06/12 09:57:05;;;;;;;8.40;5.72;;;20.70;99.90;;;;;;6215598;23;20070;-82
2021/06/12 09:59:41;;;;;;;12.50;6.35;;;20.40;99.90;;;;;;6216708;23;20074;-81
2021/06/12 10:02:10;;;;;;;10.48;6.05;;;20.20;99.90;;;;;;6242888;23;20060;-83
2021/06/12 10:04:55;;;;;;;9.07;5.95;;;20.40;99.90;;;;;;6216656;23;20077;-81
2021/06/12 10:07:22;;;;;;;9.27;6.13;;;20.40;99.90;;;;;;6216390;23;20024;-82
2021/06/12 10:09:50;;;;;;;8.32;5.75;;;20.30;99.90;;;;;;6219192;23;20074;-82
2021/06/12 10:12:17;;;;;;;8.88;4.90;;;20.10;99.90;;;;;;6244286;23;20465;-83
2021/06/12 10:14:45;;;;;;;8.07;5.25;;;20.20;99.90;;;;;;6214391;23;20075;-85
2021/06/12 10:17:15;;;;;;;7.78;5.50;;;20.50;99.90;;;;;;6217078;23;20035;-82
2021/06/12 10:19:44;;;;;;;9.55;4.88;;;20.70;99.90;;;;;;6254092;23;20123;-81
2021/06/12 10:22:14;;;;;;;10.70;5.53;;;20.80;99.90;;;;;;6243727;23;20070;-82
2021/06/12 10:24:41;;;;;;;7.95;4.90;;;20.60;99.90;;;;;;6216772;23;20023;-80
2021/06/12 10:27:09;;;;;;;9.15;4.75;;;20.30;99.90;;;;;;6216425;23;20020;-82
2021/06/12 10:29:36;;;;;;;8.98;4.90;;;20.10;99.90;;;;;;6215859;23;20020;-82
2021/06/12 10:32:05;;;;;;;6.88;4.03;;;19.90;99.90;;;;;;6239689;23;20276;-82
2021/06/12 10:34:34;;;;;;;5.57;3.60;;;19.60;99.90;;;;;;6215045;23;20290;-80
2021/06/12 10:37:03;;;;;;;8.57;3.97;;;19.60;99.90;;;;;;6215350;23;20091;-84
2021/06/12 10:39:34;;;;;;;5.87;3.30;;;19.50;99.90;;;;;;6242965;23;20024;-82
2021/06/12 10:42:13;;;;;;;7.60;3.83;;;19.50;99.90;;;;;;6217947;23;20317;-84
2021/06/12 10:44:40;;;;;;;7.00;4.45;;;19.60;99.90;;;;;;6244985;23;20020;-80
2021/06/12 10:47:08;;;;;;;7.97;3.85;;;19.50;99.90;;;;;;6243353;23;20020;-82
2021/06/12 10:49:37;;;;;;;9.48;3.80;;;19.70;99.90;;;;;;6243713;23;20080;-86
2021/06/12 10:52:12;;;;;;;7.38;4.05;;;20.10;99.90;;;;;;6217703;23;20069;-83
2021/06/12 10:54:40;;;;;;;7.03;4.00;;;20.30;99.90;;;;;;6217605;23;20031;-83
2021/06/12 10:57:16;;;;;;;6.55;4.03;;;20.70;99.90;;;;;;6213954;23;20082;-83
2021/06/12 10:59:46;;;;;;;6.68;3.45;;;21.10;99.90;;;;;;6216508;23;20461;-83
2021/06/12 11:04:52;;;;;;;6.97;3.28;;;20.90;99.90;;;;;;6243109;23;20066;-81
2021/06/12 11:07:27;;;;;;;8.23;3.42;;;20.90;99.90;;;;;;6216251;23;20016;-82
2021/06/12 11:10:15;;;;;;;5.43;3.40;;;21.10;99.90;;;;;;6214728;23;20103;-82
2021/06/12 11:12:43;;;;;;;5.88;3.38;;;21.20;99.90;;;;;;6215641;23;20331;-83
2021/06/12 11:15:13;;;;;;;7.07;2.80;;;21.40;99.90;;;;;;6239156;23;20024;-81
2021/06/12 11:17:41;;;;;;;5.32;2.65;;;21.50;99.90;;;;;;6215834;23;20028;-81
2021/06/12 11:20:29;;;;;;;5.40;2.65;;;21.20;99.90;;;;;;6243081;23;20020;-82
2021/06/12 11:23:03;;;;;;;5.13;2.50;;;21.10;99.90;;;;;;6215379;23;20074;-83
2021/06/12 11:25:43;;;;;;;8.50;2.70;;;20.90;99.90;;;;;;6242773;23;20016;-82
2021/06/12 11:28:34;;;;;;;5.85;2.80;;;21.10;99.90;;;;;;6212376;23;20389;-82
2021/06/12 11:31:27;;;;;;;5.82;2.72;;;21.00;99.90;;;;;;6184083;23;20107;-83
2021/06/12 11:34:15;;;;;;;9.50;2.60;;;20.90;99.90;;;;;;6213963;23;20020;-83
2021/06/12 11:36:45;;;;;;;4.18;2.40;;;21.00;99.70;;;;;;6213832;23;20016;-82
2021/06/12 11:39:13;;;;;;;4.55;2.40;;;21.00;99.90;;;;;;6213596;23;20016;-83
2021/06/12 11:41:43;;;;;;;5.78;2.72;;;21.10;99.80;;;;;;6242654;23;20024;-84
2021/06/12 11:44:10;;;;;;;;;;;21.20;99.90;;;;;;6214612;23;20386;-85
2021/06/12 11:46:38;;;;;;;6.15;2.50;;;21.20;99.90;;;;;;6224008;23;19916;-80
2021/06/12 11:49:08;;;;;;;7.17;2.30;;;21.30;99.90;;;;;;6242185;23;20046;-81
2021/06/12 11:51:40;;;;;;;7.40;2.00;;;21.30;99.90;;;;;;6240465;23;20027;-81
2021/06/12 11:54:13;;;;;;;5.30;2.40;;;21.30;99.40;;;;;;6215037;23;20458;-87
2021/06/12 11:56:43;;;;;;;6.63;2.20;;;21.30;99.20;;;;;;6230429;23;20326;-85
2021/06/12 11:59:11;;;;;;;5.43;2.38;;;21.30;99.90;;;;;;6213311;23;20016;-81
2021/06/12 12:01:44;;;;;;;3.92;2.08;;;21.50;98.80;;;;;;6216924;23;20161;-81
2021/06/12 12:04:15;;;;;;;5.43;2.25;;;21.50;99.90;;;;;;6242913;23;20016;-82
2021/06/12 12:06:47;;;;;;;3.17;1.88;;;21.60;98.70;;;;;;6212363;23;20024;-81
2021/06/12 12:09:26;;;;;;;8.10;2.50;;;21.60;97.20;;;;;;6214793;23;20327;-81
2021/06/12 12:11:55;;;;;;;5.30;2.20;;;21.40;98.10;;;;;;6240883;23;20020;-81
2021/06/12 12:14:33;;;;;;;4.18;2.13;;;21.10;98.10;;;;;;6213309;23;20024;-82
2021/06/12 12:17:02;;;;;;;4.97;2.13;;;20.90;97.70;;;;;;6210913;23;20024;-80
2021/06/12 12:19:28;;;;;;;6.88;2.00;;;20.80;97.50;;;;;;6210820;23;20020;-81
2021/06/12 12:21:57;;;;;;;4.55;1.92;;;20.70;97.60;;;;;;6212448;23;20315;-82
2021/06/12 12:24:28;;;;;;;4.90;2.00;;;20.60;97.70;;;;;;6212583;23;20016;-82
2021/06/12 12:27:00;;;;;;;3.90;1.77;;;20.60;97.80;;;;;;6212481;23;20446;-80
2021/06/12 12:29:29;;;;;;;6.55;1.90;;;20.60;98.20;;;;;;6239182;23;20276;-79
2021/06/12 12:31:59;;;;;;;3.10;1.70;;;20.70;97.80;;;;;;6220340;23;20393;-80
2021/06/12 12:34:30;;;;;;;5.97;2.30;;;20.80;98.90;;;;;;6211987;23;20457;-82
2021/06/12 12:36:57;;;;;;;4.55;2.05;;;21.10;97.90;;;;;;6239638;23;20020;-82
2021/06/12 12:39:35;;;;;;;5.45;2.08;;;21.30;97.70;;;;;;6236771;23;20012;-80
2021/06/12 12:42:02;;;;;;;4.82;1.80;;;21.20;96.70;;;;;;6213375;23;20444;-81
2021/06/12 12:44:30;;;;;;;5.32;1.77;;;21.20;95.40;;;;;;6217547;23;20508;-80
2021/06/12 12:46:57;;;;;;;8.68;1.80;;;21.80;97.30;;;;;;6242557;23;20054;-82
2021/06/12 12:49:25;;;;;;;4.03;1.52;;;21.40;95.80;;;;;;6211288;23;20016;-81